createdAt,value
2023-04-03T00:01:06.099Z,102637.50
2023-04-03T00:03:32.942Z,102629.69
2023-04-03T00:05:59.770Z,102644.88
2023-04-03T00:08:26.564Z,102638.72
2023-04-03T00:10:52.983Z,102636.88
2023-04-03T00:13:19.456Z,102644.53
2023-04-03T00:15:46.090Z,102649.75
2023-04-03T00:18:12.533Z,102643.88
2023-04-03T00:20:39.130Z,102643.41
2023-04-03T00:23:06.039Z,102644.69
2023-04-03T00:25:32.635Z,102651.94
2023-04-03T00:27:59.542Z,102649.09
2023-04-03T00:30:26.839Z,102644.53
2023-04-03T00:32:54.358Z,102645.03
2023-04-03T00:35:22.816Z,102649.88
2023-04-03T00:37:52.359Z,102648.00
2023-04-03T00:40:19.056Z,102656.53
2023-04-03T00:42:47.709Z,102655.03
2023-04-03T00:45:38.946Z,102653.84
2023-04-03T00:48:07.951Z,102655.31
2023-04-03T00:50:39.775Z,102651.34
2023-04-03T00:53:08.368Z,102659.28
2023-04-03T00:55:37.221Z,102654.16
2023-04-03T00:58:04.429Z,102660.78
2023-04-03T01:00:31.377Z,102660.97
2023-04-03T01:02:57.938Z,102668.59
2023-04-03T01:05:25.641Z,102656.88
2023-04-03T01:07:53.467Z,102676.16
2023-04-03T01:10:21.707Z,102668.41
2023-04-03T01:12:51.133Z,102666.63
2023-04-03T01:15:19.444Z,102668.28
2023-04-03T01:17:49.486Z,102666.06
2023-04-03T01:20:32.581Z,102664.28
2023-04-03T01:23:11.102Z,102665.28
2023-04-03T01:25:46.956Z,102669.25
2023-04-03T01:28:27.550Z,102671.25
2023-04-03T01:31:13.165Z,102680.56
2023-04-03T01:33:41.063Z,102679.81
2023-04-03T01:36:11.486Z,102685.81
2023-04-03T01:38:37.930Z,102685.69
2023-04-03T01:41:04.575Z,102686.63
2023-04-03T01:43:31.252Z,102686.78
2023-04-03T01:45:57.772Z,102685.97
2023-04-03T01:48:24.283Z,102683.69
2023-04-03T01:50:50.893Z,102687.41
2023-04-03T01:53:18.845Z,102683.03
2023-04-03T01:55:45.616Z,102688.06
2023-04-03T01:58:12.083Z,102684.75
2023-04-03T02:00:38.763Z,102687.41
2023-04-03T02:03:05.776Z,102683.78
2023-04-03T02:05:32.463Z,102685.50
2023-04-03T02:07:58.883Z,102679.16
2023-04-03T02:10:25.806Z,102689.47
2023-04-03T02:12:52.294Z,102691.03
2023-04-03T02:15:19.643Z,102690.72
2023-04-03T02:17:46.206Z,102688.97
2023-04-03T02:20:14.290Z,102687.28
2023-04-03T02:22:40.974Z,102688.81
2023-04-03T02:25:07.720Z,102704.41
2023-04-03T02:27:34.720Z,102696.47
2023-04-03T02:30:01.111Z,102698.13
2023-04-03T02:32:28.572Z,102698.22
2023-04-03T02:34:55.551Z,102698.00
2023-04-03T02:37:23.167Z,102696.44
2023-04-03T02:39:51.572Z,102695.84
2023-04-03T02:42:18.072Z,102690.78
2023-04-03T02:44:45.478Z,102695.00
2023-04-03T02:47:11.966Z,102695.44
2023-04-03T02:49:38.475Z,102688.25
2023-04-03T02:52:05.630Z,102695.75
2023-04-03T02:54:32.269Z,102694.84
2023-04-03T02:57:03.448Z,102694.53
2023-04-03T02:59:29.881Z,102705.75
2023-04-03T03:01:56.879Z,102701.38
2023-04-03T03:04:23.544Z,102703.22
2023-04-03T03:06:51.691Z,102699.94
2023-04-03T03:09:18.104Z,102709.53
2023-04-03T03:11:44.582Z,102712.22
2023-04-03T03:14:11.019Z,102713.84
2023-04-03T03:16:37.441Z,102714.19
2023-04-03T03:19:03.903Z,102713.28
2023-04-03T03:21:30.664Z,102716.63
2023-04-03T03:23:57.092Z,102719.16
2023-04-03T03:26:23.681Z,102716.78
2023-04-03T03:28:50.377Z,102713.91
2023-04-03T03:31:16.921Z,102713.06
2023-04-03T03:33:43.489Z,102717.00
2023-04-03T03:36:10.237Z,102713.22
2023-04-03T03:38:36.815Z,102716.56
2023-04-03T03:41:03.842Z,102712.53
2023-04-03T03:43:33.611Z,102711.88
2023-04-03T03:46:00.288Z,102714.09
2023-04-03T03:48:28.013Z,102710.94
2023-04-03T03:50:54.479Z,102715.44
2023-04-03T03:53:25.586Z,102719.00
2023-04-03T03:55:56.063Z,102712.97
2023-04-03T03:58:25.604Z,102703.75
2023-04-03T04:00:52.280Z,102716.66
2023-04-03T04:03:18.890Z,102711.56
2023-04-03T04:05:48.001Z,102709.53
2023-04-03T04:08:14.830Z,102723.16
2023-04-03T04:10:41.287Z,102721.09
2023-04-03T04:13:09.253Z,102719.09
2023-04-03T04:15:36.220Z,102716.13
2023-04-03T04:18:03.529Z,102723.28
2023-04-03T04:20:30.805Z,102724.97
2023-04-03T04:22:57.476Z,102723.56
2023-04-03T04:25:25.377Z,102727.34
2023-04-03T04:27:52.545Z,102734.91
2023-04-03T04:30:19.155Z,102737.31
2023-04-03T04:32:48.411Z,102735.16
2023-04-03T04:35:16.779Z,102740.91
2023-04-03T04:37:46.012Z,102741.28
2023-04-03T04:40:13.219Z,102741.28
2023-04-03T04:42:40.010Z,102751.59
2023-04-03T04:45:08.373Z,102746.47
2023-04-03T04:47:36.064Z,102754.09
2023-04-03T04:50:02.807Z,102747.41
2023-04-03T04:52:29.383Z,102747.72
2023-04-03T04:54:55.935Z,102757.31
2023-04-03T04:57:22.778Z,102747.47
2023-04-03T04:59:49.856Z,102765.00
2023-04-03T05:02:16.579Z,102760.97
2023-04-03T05:04:45.082Z,102760.69
2023-04-03T05:07:17.348Z,102769.09
2023-04-03T05:09:44.325Z,102776.41
2023-04-03T05:12:12.549Z,102771.09
2023-04-03T05:14:45.363Z,102771.69
2023-04-03T05:17:11.951Z,102776.88
2023-04-03T05:19:42.191Z,102773.22
2023-04-03T05:22:10.351Z,102776.19
2023-04-03T05:24:36.822Z,102773.66
2023-04-03T05:27:04.555Z,102777.03
2023-04-03T05:29:33.863Z,102769.00
2023-04-03T05:32:02.207Z,102777.31
2023-04-03T05:34:29.215Z,102773.09
2023-04-03T05:36:56.695Z,102777.56
2023-04-03T05:39:23.897Z,102779.25
2023-04-03T05:41:51.163Z,102784.31
2023-04-03T05:44:18.119Z,102785.09
2023-04-03T05:46:46.460Z,102785.09
2023-04-03T05:49:12.992Z,102795.09
2023-04-03T05:51:41.366Z,102798.75
2023-04-03T05:54:24.513Z,102805.22
2023-04-03T05:56:56.069Z,102799.63
2023-04-03T05:59:23.676Z,102811.25
2023-04-03T06:01:53.169Z,102815.78
2023-04-03T06:04:20.899Z,102812.38
2023-04-03T06:06:56.015Z,102824.19
2023-04-03T06:09:25.714Z,102823.28
2023-04-03T06:11:52.914Z,102828.91
2023-04-03T06:14:21.058Z,102822.84
2023-04-03T06:16:48.188Z,102833.78
2023-04-03T06:19:14.644Z,102834.78
2023-04-03T06:21:48.125Z,102838.13
2023-04-03T06:24:17.403Z,102832.88
2023-04-03T06:26:44.431Z,102835.16
2023-04-03T06:29:11.113Z,102829.47
2023-04-03T06:31:37.838Z,102834.88
2023-04-03T06:34:07.250Z,102841.03
2023-04-03T06:36:35.642Z,102840.44
2023-04-03T06:39:02.690Z,102835.69
2023-04-03T06:41:29.253Z,102839.69
2023-04-03T06:43:57.404Z,102839.84
2023-04-03T06:46:24.685Z,102843.22
2023-04-03T06:48:51.780Z,102844.59
2023-04-03T06:51:24.336Z,102840.88
2023-04-03T06:53:53.036Z,102848.56
2023-04-03T06:56:19.850Z,102852.56
2023-04-03T06:58:47.124Z,102868.09
2023-04-03T07:01:16.148Z,102866.31
2023-04-03T07:03:43.242Z,102873.56
2023-04-03T07:06:12.920Z,102866.00
2023-04-03T07:08:40.393Z,102866.28
2023-04-03T07:11:07.559Z,102865.53
2023-04-03T07:13:34.533Z,102876.38
2023-04-03T07:16:02.561Z,102875.47
2023-04-03T07:18:29.085Z,102880.03
2023-04-03T07:20:55.841Z,102883.72
2023-04-03T07:23:24.620Z,102879.94
2023-04-03T07:25:52.348Z,102887.78
2023-04-03T07:28:20.283Z,102893.41
2023-04-03T07:30:48.960Z,102891.97
2023-04-03T07:33:17.238Z,102893.00
2023-04-03T07:35:44.205Z,102894.16
2023-04-03T07:38:11.453Z,102893.50
2023-04-03T07:40:38.492Z,102900.31
2023-04-03T07:43:06.326Z,102890.13
2023-04-03T07:45:36.142Z,102891.81
2023-04-03T07:48:03.558Z,102892.00
2023-04-03T07:50:31.410Z,102887.91
2023-04-03T07:52:58.686Z,102895.94
2023-04-03T07:55:26.157Z,102903.44
2023-04-03T07:57:52.785Z,102896.47
2023-04-03T08:00:20.629Z,102892.91
2023-04-03T08:02:52.328Z,102893.09
2023-04-03T08:05:20.084Z,102890.09
2023-04-03T08:07:47.533Z,102890.28
2023-04-03T08:10:15.250Z,102889.47
2023-04-03T08:12:42.332Z,102891.78
2023-04-03T08:15:09.949Z,102889.97
2023-04-03T08:17:36.868Z,102893.81
2023-04-03T08:20:07.539Z,102898.50
2023-04-03T08:22:34.990Z,102896.81
2023-04-03T08:25:04.840Z,102892.97
2023-04-03T08:27:32.813Z,102902.31
2023-04-03T08:29:59.517Z,102892.41
2023-04-03T08:32:26.867Z,102893.75
2023-04-03T08:34:53.306Z,102889.69
2023-04-03T08:37:20.166Z,102885.28
2023-04-03T08:39:46.705Z,102888.25
2023-04-03T08:42:36.507Z,102883.16
2023-04-03T08:45:10.476Z,102879.03
2023-04-03T08:47:54.584Z,102882.88
2023-04-03T08:50:31.206Z,102883.22
2023-04-03T08:52:59.953Z,102884.69
2023-04-03T08:55:40.340Z,102879.66
2023-04-03T08:58:17.673Z,102888.19
2023-04-03T09:00:51.907Z,102884.63
2023-04-03T09:03:22.981Z,102875.69
2023-04-03T09:06:08.158Z,102871.34
2023-04-03T09:08:41.589Z,102874.00
2023-04-03T09:11:18.234Z,102879.78
2023-04-03T09:14:07.970Z,102876.78
2023-04-03T09:16:54.131Z,102860.16
2023-04-03T09:19:33.864Z,102866.75
2023-04-03T09:22:25.937Z,102864.75
2023-04-03T09:25:19.994Z,102871.66
2023-04-03T09:27:46.881Z,102867.81
2023-04-03T09:30:18.915Z,102874.22
2023-04-03T09:32:48.248Z,102859.91
2023-04-03T09:35:20.543Z,102870.88
2023-04-03T09:37:52.887Z,102865.22
2023-04-03T09:40:36.455Z,102859.03
2023-04-03T09:43:20.889Z,102852.50
2023-04-03T09:45:49.063Z,102850.50
2023-04-03T09:48:16.708Z,102852.84
2023-04-03T09:51:00.306Z,102844.69
2023-04-03T09:53:27.853Z,102839.94
2023-04-03T09:55:54.466Z,102850.63
2023-04-03T09:58:42.763Z,102848.41
2023-04-03T10:01:30.602Z,102848.25
2023-04-03T10:04:23.710Z,102831.06
2023-04-03T10:06:56.052Z,102834.56
2023-04-03T10:09:29.143Z,102843.09
2023-04-03T10:12:06.094Z,102838.88
2023-04-03T10:14:35.826Z,102837.63
2023-04-03T10:17:22.329Z,102825.47
2023-04-03T10:19:54.793Z,102818.47
2023-04-03T10:22:51.567Z,102815.47
2023-04-03T10:25:33.101Z,102822.03
2023-04-03T10:28:13.476Z,102812.63
2023-04-03T10:30:49.608Z,102816.47
2023-04-03T10:33:37.123Z,102804.69
2023-04-03T10:36:45.814Z,102799.13
2023-04-03T10:39:51.633Z,102797.28
2023-04-03T10:42:36.242Z,102800.63
2023-04-03T10:45:20.423Z,102800.63
2023-04-03T10:48:11.554Z,102800.00
2023-04-03T10:50:56.912Z,102802.06
2023-04-03T10:53:46.258Z,102791.66
2023-04-03T10:56:30.957Z,102799.13
2023-04-03T10:59:08.795Z,102792.66
2023-04-03T11:01:41.428Z,102791.63
2023-04-03T11:04:10.325Z,102794.34
2023-04-03T11:06:42.122Z,102779.72
2023-04-03T11:09:25.756Z,102783.66
2023-04-03T11:11:57.650Z,102780.78
2023-04-03T11:14:29.111Z,102771.00
2023-04-03T11:17:22.920Z,102775.78
2023-04-03T11:19:58.152Z,102780.63
2023-04-03T11:22:39.447Z,102769.84
2023-04-03T11:25:25.060Z,102774.38
2023-04-03T11:28:04.968Z,102776.53
2023-04-03T11:30:57.590Z,102765.44
2023-04-03T11:33:33.779Z,102763.28
2023-04-03T11:36:24.895Z,102760.44
2023-04-03T11:38:58.244Z,102767.97
2023-04-03T11:41:28.215Z,102753.44
2023-04-03T11:44:26.993Z,102747.66
2023-04-03T11:46:58.235Z,102756.50
2023-04-03T11:49:54.044Z,102754.00
2023-04-03T11:52:40.970Z,102755.19
2023-04-03T11:55:23.960Z,102751.47
2023-04-03T11:57:59.467Z,102750.66
2023-04-03T12:00:44.959Z,102756.06
2023-04-03T12:03:35.286Z,102743.41
2023-04-03T12:06:08.101Z,102743.41
2023-04-03T12:08:34.560Z,102741.63
2023-04-03T12:11:10.573Z,102744.16
2023-04-03T12:14:04.815Z,102743.47
2023-04-03T12:16:42.894Z,102745.59
2023-04-03T12:19:15.617Z,102737.50
2023-04-03T12:21:45.925Z,102739.00
2023-04-03T12:24:18.237Z,102721.94
2023-04-03T12:27:16.594Z,102735.41
2023-04-03T12:30:04.772Z,102728.72
2023-04-03T12:32:40.576Z,102725.00
2023-04-03T12:35:19.474Z,102718.13
2023-04-03T12:38:21.303Z,102715.44
2023-04-03T12:41:06.554Z,102708.31
2023-04-03T12:44:07.645Z,102707.50
2023-04-03T12:46:43.414Z,102707.69
2023-04-03T12:49:32.360Z,102704.97
2023-04-03T12:51:59.693Z,102702.41
2023-04-03T12:54:42.942Z,102694.09
2023-04-03T12:57:30.247Z,102693.91
2023-04-03T12:59:57.323Z,102687.88
2023-04-03T13:02:27.293Z,102688.06
2023-04-03T13:04:58.764Z,102693.25
2023-04-03T13:07:29.566Z,102682.31
2023-04-03T13:09:58.089Z,102685.06
2023-04-03T13:12:24.730Z,102685.75
2023-04-03T13:15:01.363Z,102685.56
2023-04-03T13:17:29.107Z,102678.13
2023-04-03T13:19:55.589Z,102676.25
2023-04-03T13:22:39.976Z,102678.53
2023-04-03T13:25:10.551Z,102671.22
2023-04-03T13:27:40.441Z,102667.41
2023-04-03T13:30:20.672Z,102668.56
2023-04-03T13:32:47.407Z,102657.94
2023-04-03T13:35:38.254Z,102661.41
2023-04-03T13:38:27.159Z,102648.66
2023-04-03T13:40:56.889Z,102656.28
2023-04-03T13:43:29.975Z,102661.91
2023-04-03T13:46:06.001Z,102657.22
2023-04-03T13:48:39.334Z,102654.97
2023-04-03T13:51:11.689Z,102653.97
2023-04-03T13:54:00.737Z,102640.41
2023-04-03T13:56:38.542Z,102649.53
2023-04-03T13:59:05.216Z,102644.16
2023-04-03T14:01:43.904Z,102641.88
2023-04-03T14:04:15.984Z,102644.56
2023-04-03T14:06:42.556Z,102641.03
2023-04-03T14:09:09.150Z,102633.31
2023-04-03T14:11:36.920Z,102628.03
2023-04-03T14:14:12.393Z,102621.91
2023-04-03T14:16:42.465Z,102613.13
2023-04-03T14:19:18.790Z,102607.72
2023-04-03T14:21:45.234Z,102606.53
2023-04-03T14:24:12.470Z,102612.84
2023-04-03T14:26:38.962Z,102616.91
2023-04-03T14:29:05.626Z,102622.78
2023-04-03T14:31:32.089Z,102615.38
2023-04-03T14:33:58.525Z,102611.25
2023-04-03T14:36:28.219Z,102619.97
2023-04-03T14:38:55.808Z,102611.38
2023-04-03T14:41:25.418Z,102609.19
2023-04-03T14:43:52.599Z,102603.41
2023-04-03T14:46:42.998Z,102601.63
2023-04-03T14:49:26.296Z,102604.97
2023-04-03T14:51:53.703Z,102604.88
2023-04-03T14:54:28.309Z,102603.53
2023-04-03T14:56:57.468Z,102605.63
2023-04-03T14:59:24.324Z,102599.22
2023-04-03T15:01:51.001Z,102600.03
2023-04-03T15:04:20.995Z,102595.41
2023-04-03T15:06:49.101Z,102590.50
2023-04-03T15:09:27.093Z,102592.78
2023-04-03T15:11:55.960Z,102593.25
2023-04-03T15:14:35.788Z,102591.28
2023-04-03T15:17:08.026Z,102595.03
2023-04-03T15:19:39.751Z,102586.69
2023-04-03T15:22:06.522Z,102594.41
2023-04-03T15:24:33.356Z,102595.03
2023-04-03T15:27:02.092Z,102588.78
2023-04-03T15:29:28.687Z,102600.41
2023-04-03T15:31:55.299Z,102589.13
2023-04-03T15:34:22.828Z,102587.41
2023-04-03T15:36:51.027Z,102585.34
2023-04-03T15:39:17.599Z,102581.47
2023-04-03T15:41:46.188Z,102584.81
2023-04-03T15:44:13.264Z,102589.41
2023-04-03T15:46:39.928Z,102583.59
2023-04-03T15:49:06.800Z,102580.28
2023-04-03T15:51:33.432Z,102574.63
2023-04-03T15:54:01.148Z,102587.53
2023-04-03T15:56:27.602Z,102587.09
2023-04-03T15:58:54.026Z,102580.19
2023-04-03T16:01:20.649Z,102578.28
2023-04-03T16:03:47.911Z,102576.56
2023-04-03T16:06:16.313Z,102580.09
2023-04-03T16:08:43.517Z,102584.31
2023-04-03T16:11:10.618Z,102582.00
2023-04-03T16:13:37.262Z,102582.47
2023-04-03T16:16:05.166Z,102576.47
2023-04-03T16:18:32.504Z,102575.84
2023-04-03T16:20:59.048Z,102582.13
2023-04-03T16:23:26.083Z,102585.03
2023-04-03T16:25:52.492Z,102581.69
2023-04-03T16:28:19.052Z,102575.44
2023-04-03T16:30:47.005Z,102581.03
2023-04-03T16:33:14.144Z,102575.59
2023-04-03T16:35:42.866Z,102571.81
2023-04-03T16:38:09.633Z,102572.66
2023-04-03T16:40:36.371Z,102574.06
2023-04-03T16:43:03.512Z,102571.38
2023-04-03T16:45:29.985Z,102572.84
2023-04-03T16:47:56.441Z,102575.56
2023-04-03T16:50:23.061Z,102570.59
2023-04-03T16:52:49.583Z,102568.13
2023-04-03T16:55:16.088Z,102564.22
2023-04-03T16:57:42.612Z,102571.28
2023-04-03T17:00:09.741Z,102569.00
2023-04-03T17:02:36.374Z,102570.25
2023-04-03T17:05:03.102Z,102565.44
2023-04-03T17:07:29.680Z,102560.66
2023-04-03T17:09:56.087Z,102565.81
2023-04-03T17:12:23.336Z,102574.53
2023-04-03T17:14:49.941Z,102569.34
2023-04-03T17:17:19.390Z,102573.63
2023-04-03T17:19:45.903Z,102573.63
2023-04-03T17:22:12.558Z,102569.72
2023-04-03T17:24:39.145Z,102575.25
2023-04-03T17:27:05.749Z,102568.59
2023-04-03T17:29:32.546Z,102572.34
2023-04-03T17:31:59.002Z,102580.19
2023-04-03T17:34:25.453Z,102575.28
2023-04-03T17:36:51.877Z,102580.63
2023-04-03T17:39:18.404Z,102577.38
2023-04-03T17:41:46.028Z,102573.84
2023-04-03T17:44:13.399Z,102573.44
2023-04-03T17:46:39.944Z,102581.25
2023-04-03T17:49:06.685Z,102575.81
2023-04-03T17:51:34.486Z,102582.88
2023-04-03T17:54:01.270Z,102583.66
2023-04-03T17:56:28.372Z,102588.38
2023-04-03T17:58:56.673Z,102593.47
2023-04-03T18:01:26.710Z,102594.03
2023-04-03T18:03:57.211Z,102592.28
2023-04-03T18:06:38.525Z,102592.47
2023-04-03T18:09:11.212Z,102589.28
2023-04-03T18:11:38.374Z,102590.25
2023-04-03T18:14:07.641Z,102593.72
2023-04-03T18:16:35.170Z,102585.38
2023-04-03T18:19:21.316Z,102597.28
2023-04-03T18:21:48.558Z,102596.38
2023-04-03T18:24:18.239Z,102602.06
2023-04-03T18:26:50.962Z,102601.09
2023-04-03T18:29:18.194Z,102599.13
2023-04-03T18:31:50.442Z,102600.91
2023-04-03T18:34:16.974Z,102609.72
2023-04-03T18:36:43.745Z,102599.34
2023-04-03T18:39:10.199Z,102600.19
2023-04-03T18:41:37.359Z,102603.16
2023-04-03T18:44:06.873Z,102610.22
2023-04-03T18:46:34.365Z,102610.97
2023-04-03T18:49:01.101Z,102610.88
2023-04-03T18:51:27.676Z,102610.59
2023-04-03T18:53:54.126Z,102611.06
2023-04-03T18:56:22.125Z,102604.16
2023-04-03T18:58:48.576Z,102601.47
2023-04-03T19:01:15.639Z,102606.66
2023-04-03T19:03:42.496Z,102613.38
2023-04-03T19:06:09.018Z,102612.03
2023-04-03T19:08:35.737Z,102617.50
2023-04-03T19:11:02.811Z,102613.63
2023-04-03T19:13:29.764Z,102622.44
2023-04-03T19:15:59.009Z,102618.88
2023-04-03T19:18:27.300Z,102613.13
2023-04-03T19:20:58.663Z,102614.16
2023-04-03T19:23:25.386Z,102620.34
2023-04-03T19:26:06.685Z,102618.19
2023-04-03T19:28:34.413Z,102613.47
2023-04-03T19:31:01.556Z,102615.16
2023-04-03T19:33:29.376Z,102612.47
2023-04-03T19:35:55.833Z,102611.59
2023-04-03T19:38:22.590Z,102611.69
2023-04-03T19:40:49.236Z,102609.44
2023-04-03T19:43:16.830Z,102604.28
2023-04-03T19:45:45.896Z,102612.69
2023-04-03T19:48:12.653Z,102613.13
2023-04-03T19:50:39.856Z,102611.22
2023-04-03T19:53:06.625Z,102612.22
2023-04-03T19:55:35.124Z,102609.47
2023-04-03T19:58:04.282Z,102616.53
2023-04-03T20:00:31.695Z,102620.09
2023-04-03T20:02:58.685Z,102612.44
2023-04-03T20:05:26.328Z,102609.44
2023-04-03T20:07:52.803Z,102617.81
2023-04-03T20:10:19.553Z,102614.34
2023-04-03T20:12:46.052Z,102612.00
2023-04-03T20:15:13.345Z,102621.59
2023-04-03T20:17:41.301Z,102612.06
2023-04-03T20:20:08.555Z,102609.22
2023-04-03T20:22:37.475Z,102611.28
2023-04-03T20:25:07.505Z,102620.72
2023-04-03T20:27:34.909Z,102627.25
2023-04-03T20:30:04.070Z,102629.59
2023-04-03T20:32:31.412Z,102630.16
2023-04-03T20:35:04.465Z,102623.59
2023-04-03T20:37:31.489Z,102628.81
2023-04-03T20:39:58.349Z,102625.63
2023-04-03T20:42:25.148Z,102621.13
2023-04-03T20:44:52.383Z,102624.13
2023-04-03T20:47:18.977Z,102622.63
2023-04-03T20:49:46.194Z,102616.09
2023-04-03T20:52:12.581Z,102617.59
2023-04-03T20:54:40.107Z,102620.66
2023-04-03T20:57:07.016Z,102616.13
2023-04-03T20:59:34.263Z,102615.47
2023-04-03T21:02:00.871Z,102618.97
2023-04-03T21:04:45.189Z,102612.47
2023-04-03T21:07:52.202Z,102601.09
2023-04-03T21:10:56.428Z,102602.94
2023-04-03T21:14:01.137Z,102602.94
2023-04-03T21:16:28.164Z,102593.56
2023-04-03T21:19:00.645Z,102591.75
2023-04-03T21:21:28.766Z,102588.91
2023-04-03T21:23:55.788Z,102580.66
2023-04-03T21:26:25.501Z,102582.50
2023-04-03T21:28:52.545Z,102582.34
2023-04-03T21:31:22.287Z,102581.84
2023-04-03T21:33:49.464Z,102579.50
2023-04-03T21:36:16.208Z,102577.31
2023-04-03T21:38:44.904Z,102581.84
2023-04-03T21:41:11.544Z,102582.34
2023-04-03T21:43:37.990Z,102590.22
2023-04-03T21:46:05.757Z,102578.34
2023-04-03T21:48:33.036Z,102577.16
2023-04-03T21:51:04.071Z,102575.66
2023-04-03T21:53:31.637Z,102581.34
2023-04-03T21:55:58.337Z,102579.50
2023-04-03T21:58:32.371Z,102576.81
2023-04-03T22:01:11.827Z,102573.31
2023-04-03T22:03:39.115Z,102583.34
2023-04-03T22:06:06.008Z,102583.53
2023-04-03T22:08:32.544Z,102579.66
2023-04-03T22:11:13.379Z,102574.47
2023-04-03T22:13:41.411Z,102581.66
2023-04-03T22:16:08.707Z,102572.31
2023-04-03T22:18:35.555Z,102574.47
2023-04-03T22:21:02.741Z,102573.13
2023-04-03T22:23:29.470Z,102569.59
2023-04-03T22:26:01.317Z,102563.91
2023-04-03T22:28:28.797Z,102563.56
2023-04-03T22:30:56.199Z,102571.09
2023-04-03T22:33:23.149Z,102569.09
2023-04-03T22:35:50.463Z,102564.06
2023-04-03T22:38:17.760Z,102556.34
2023-04-03T22:40:47.345Z,102558.19
2023-04-03T22:43:13.871Z,102555.19
2023-04-03T22:45:47.908Z,102550.34
2023-04-03T22:48:15.130Z,102545.47
2023-04-03T22:50:42.069Z,102554.34
2023-04-03T22:53:09.182Z,102558.50
2023-04-03T22:55:36.570Z,102550.81
2023-04-03T22:58:03.535Z,102557.19
2023-04-03T23:00:30.469Z,102556.16
2023-04-03T23:02:58.937Z,102548.78
2023-04-03T23:05:25.594Z,102546.59
2023-04-03T23:07:52.436Z,102560.84
2023-04-03T23:10:19.417Z,102560.31
2023-04-03T23:12:45.921Z,102552.94
2023-04-03T23:15:14.434Z,102561.78
2023-04-03T23:17:41.158Z,102558.59
2023-04-03T23:20:08.010Z,102566.44
2023-04-03T23:22:34.628Z,102564.81
2023-04-03T23:25:01.561Z,102563.31
2023-04-03T23:27:28.420Z,102565.81
2023-04-03T23:29:55.314Z,102563.50
2023-04-03T23:32:21.736Z,102562.50
2023-04-03T23:34:48.147Z,102562.47
2023-04-03T23:37:14.556Z,102569.50
2023-04-03T23:39:41.434Z,102562.97
2023-04-03T23:42:10.888Z,102568.34
2023-04-03T23:44:37.693Z,102568.50
2023-04-03T23:47:04.567Z,102565.81
2023-04-03T23:49:32.078Z,102572.47
2023-04-03T23:51:58.565Z,102578.53
2023-04-03T23:54:25.215Z,102576.34
2023-04-03T23:56:51.938Z,102579.16
2023-04-03T23:59:18.445Z,102578.16
